Terminal Aerodrome Forecast
Issued by NWS

Home | Current Version | Previous Version | Text Only | Print | Product List | Glossary On
Versions: 1 2 3 4 5 6 7 8 9 10 11 12 13 14 15 16 17 18 19 20 21
000
FTUS44 KHGX 292320
TAFLBX
TAF
KLBX 292320Z 3000/3024 12006KT P6SM SCT025 SCT250
     FM301000 15003KT 6SM BR FEW025 BKN250
     FM301500 14006KT P6SM SCT025 SCT035 BKN120
     FM301800 15009KT P6SM SCT035 SCT045
     FM302100 14009KT P6SM FEW045=

USA.gov is the U.S. government's official web portal to all federal, state and local government web resources and services.